Time;durP1;ratioP1;P1;durP2;ratioP2;P2;SDS_P1;SDS_P2;PMS_P1;PMS_P2;Temp;Humidity;BMP_temperature;BMP_pressure;BME280_temperature;BME280_humidity;BME280_pressure;Samples;Min_cycle;Max_cycle;Signal;HPM_P1;HPM_P2
2022/11/10 00:01:17;;;;;;;12.77;4.80;;;13.80;99.90;;;;;;6132637;28;20209;-85
2022/11/10 00:04:18;;;;;;;11.93;5.18;;;13.80;99.90;;;;;;6133263;29;20058;-86
2022/11/10 00:07:24;;;;;;;15.63;5.28;;;13.80;99.90;;;;;;6132956;29;20063;-86
2022/11/10 00:10:26;;;;;;;17.08;5.63;;;13.90;99.90;;;;;;6133519;29;20055;-84
2022/11/10 00:13:30;;;;;;;15.13;5.15;;;13.90;99.90;;;;;;6132601;29;20361;-85
2022/11/10 00:19:51;;;;;;;27.23;6.30;;;14.00;99.90;;;;;;6133135;29;20039;-86
2022/11/10 00:22:55;;;;;;;16.02;5.70;;;13.90;99.90;;;;;;6133418;29;20055;-86
2022/11/10 00:25:57;;;;;;;13.23;4.63;;;13.90;99.90;;;;;;6131296;29;20047;-86
2022/11/10 00:28:58;;;;;;;22.73;4.60;;;13.90;99.90;;;;;;6128784;29;20048;-85
2022/11/10 00:32:00;;;;;;;16.77;5.20;;;13.80;99.90;;;;;;6130496;29;20051;-86
2022/11/10 00:35:02;;;;;;;8.73;4.05;;;13.90;99.90;;;;;;6130852;29;20043;-86
2022/11/10 00:38:05;;;;;;;15.60;5.05;;;13.90;99.90;;;;;;6130641;29;20413;-84
2022/11/10 00:41:06;;;;;;;19.10;6.60;;;13.90;99.90;;;;;;6131051;29;20066;-85
2022/11/10 00:44:08;;;;;;;14.60;4.80;;;13.90;99.90;;;;;;6129874;29;20108;-84
2022/11/10 00:47:10;;;;;;;11.15;4.32;;;13.80;99.90;;;;;;6130785;29;20052;-84
2022/11/10 00:50:12;;;;;;;22.92;5.57;;;13.80;99.90;;;;;;6130042;29;20141;-85
2022/11/10 00:53:15;;;;;;;17.02;4.72;;;13.70;99.90;;;;;;6130740;29;20047;-85
2022/11/10 00:56:17;;;;;;;16.23;4.75;;;13.70;99.90;;;;;;6135541;29;20032;-83
2022/11/10 00:59:19;;;;;;;18.33;5.32;;;13.50;99.90;;;;;;6155182;28;20104;-83
2022/11/10 01:02:20;;;;;;;17.40;5.13;;;13.40;99.90;;;;;;6148631;29;20054;-87
2022/11/10 01:05:22;;;;;;;13.43;4.40;;;13.30;99.90;;;;;;6136296;28;20062;-86
2022/11/10 01:08:25;;;;;;;28.40;5.25;;;13.20;99.90;;;;;;6135310;29;20111;-85
2022/11/10 01:11:28;;;;;;;17.52;4.03;;;13.10;99.90;;;;;;6133856;29;20052;-87
2022/11/10 01:14:30;;;;;;;12.90;4.00;;;12.90;99.90;;;;;;6134001;29;20044;-86
2022/11/10 01:17:31;;;;;;;11.15;4.13;;;12.90;99.90;;;;;;6133389;29;20437;-86
2022/11/10 01:20:33;;;;;;;11.63;3.47;;;12.80;99.90;;;;;;6133049;29;20062;-87
2022/11/10 01:23:37;;;;;;;10.93;4.28;;;12.70;99.90;;;;;;6132277;29;20052;-86
2022/11/10 01:26:38;;;;;;;16.20;3.97;;;12.70;99.90;;;;;;6140309;29;20056;-85
2022/11/10 01:29:40;;;;;;;10.98;3.58;;;12.60;99.90;;;;;;6133196;29;20055;-87
2022/11/10 01:32:42;;;;;;;22.38;4.82;;;12.50;99.90;;;;;;6142891;28;20047;-87
2022/11/10 01:35:45;;;;;;;14.75;4.55;;;12.50;99.90;;;;;;6156963;28;20043;-87
2022/11/10 01:38:48;;;;;;;12.98;3.67;;;12.40;99.90;;;;;;6162053;29;20055;-87
2022/11/10 01:41:50;;;;;;;11.65;3.47;;;12.40;99.90;;;;;;6161998;28;20055;-87
2022/11/10 01:45:33;;;;;;;12.57;3.60;;;12.40;99.90;;;;;;6160932;28;20453;-84
2022/11/10 01:48:39;;;;;;;7.35;3.17;;;12.20;99.90;;;;;;6161212;28;20055;-86
2022/11/10 01:51:45;;;;;;;9.40;3.65;;;12.20;99.90;;;;;;6161098;28;20051;-86
2022/11/10 01:54:49;;;;;;;10.63;3.63;;;12.20;99.90;;;;;;6161179;29;20055;-87
2022/11/10 01:57:51;;;;;;;15.77;4.05;;;12.10;99.90;;;;;;6160202;28;20058;-86
2022/11/10 02:00:54;;;;;;;14.48;3.13;;;12.10;99.90;;;;;;6161300;28;20051;-86
2022/11/10 02:03:58;;;;;;;11.00;3.75;;;12.00;99.90;;;;;;6159957;28;20051;-86
2022/11/10 02:07:00;;;;;;;8.45;3.55;;;12.00;99.90;;;;;;6160991;29;20051;-86
2022/11/10 02:10:05;;;;;;;10.63;3.70;;;12.00;99.90;;;;;;6159497;28;20421;-85
2022/11/10 02:13:06;;;;;;;13.80;3.58;;;11.90;99.90;;;;;;6159228;28;20059;-85
2022/11/10 02:16:10;;;;;;;13.07;3.72;;;11.90;99.90;;;;;;6159085;28;20417;-86
2022/11/10 02:19:15;;;;;;;20.00;3.63;;;11.80;99.90;;;;;;6159926;29;20054;-85
2022/11/10 02:22:18;;;;;;;12.15;3.88;;;11.80;99.90;;;;;;6158962;28;20055;-84
2022/11/10 02:25:22;;;;;;;14.60;4.88;;;11.80;99.90;;;;;;6157952;28;20489;-85
2022/11/10 02:28:26;;;;;;;16.08;3.47;;;11.80;99.90;;;;;;6143970;28;20051;-86
2022/11/10 02:31:27;;;;;;;14.55;4.28;;;11.70;99.90;;;;;;6133833;28;20054;-85
2022/11/10 02:34:29;;;;;;;12.52;3.72;;;11.70;99.90;;;;;;6134500;29;20047;-86
2022/11/10 02:37:33;;;;;;;16.42;4.75;;;11.70;99.90;;;;;;6133970;29;20048;-87
2022/11/10 02:40:34;;;;;;;9.60;3.20;;;11.60;99.90;;;;;;6134817;29;20062;-85
2022/11/10 02:43:38;;;;;;;11.15;3.13;;;11.60;99.90;;;;;;6134318;29;20044;-87
2022/11/10 02:46:39;;;;;;;9.27;3.10;;;11.50;99.90;;;;;;6134912;29;20058;-86
2022/11/10 02:49:43;;;;;;;16.25;3.53;;;11.50;99.90;;;;;;6131665;29;20437;-85
2022/11/10 02:52:46;;;;;;;9.57;3.35;;;11.40;99.90;;;;;;6133573;29;20063;-85
2022/11/10 02:55:48;;;;;;;16.20;3.83;;;11.40;99.90;;;;;;6133601;29;20047;-86
2022/11/10 02:58:50;;;;;;;16.65;3.75;;;11.40;99.90;;;;;;6133328;29;20059;-85
2022/11/10 03:01:51;;;;;;;10.23;3.22;;;11.40;99.90;;;;;;6131887;29;20058;-86
2022/11/10 03:04:53;;;;;;;14.02;4.18;;;11.40;99.90;;;;;;6132547;29;20059;-84
2022/11/10 03:07:58;;;;;;;13.45;3.35;;;11.30;99.90;;;;;;6131774;29;20048;-85
2022/11/10 03:10:59;;;;;;;5.50;2.65;;;11.60;99.90;;;;;;6133649;29;20058;-85
2022/11/10 03:14:01;;;;;;;4.82;2.65;;;11.20;99.90;;;;;;6131928;29;20048;-85
2022/11/10 03:17:03;;;;;;;13.75;3.20;;;11.20;99.90;;;;;;6132371;29;20047;-86
2022/11/10 03:20:05;;;;;;;7.28;2.72;;;11.20;99.90;;;;;;6131776;29;20056;-87
2022/11/10 03:23:08;;;;;;;11.02;3.75;;;11.10;99.90;;;;;;6131149;29;20055;-86
2022/11/10 03:26:10;;;;;;;6.13;2.67;;;10.90;99.90;;;;;;6131528;29;20051;-86
2022/11/10 03:29:12;;;;;;;6.85;2.22;;;10.80;99.90;;;;;;6131528;28;20134;-84
2022/11/10 03:32:13;;;;;;;11.95;2.95;;;10.80;99.90;;;;;;6130869;29;20051;-86
2022/11/10 03:35:15;;;;;;;11.60;3.05;;;10.70;99.90;;;;;;6131248;29;20055;-86
2022/11/10 03:38:19;;;;;;;9.25;3.70;;;10.60;99.90;;;;;;6132241;29;20052;-86
2022/11/10 03:41:20;;;;;;;14.23;3.00;;;10.50;99.90;;;;;;6130844;29;20066;-84
2022/11/10 03:44:22;;;;;;;12.48;3.42;;;10.50;99.90;;;;;;6131177;29;20051;-86
2022/11/10 03:47:24;;;;;;;14.93;3.10;;;10.50;99.90;;;;;;6129512;29;20067;-85
2022/11/10 03:50:25;;;;;;;15.98;3.50;;;10.50;99.90;;;;;;6131302;29;20568;-84
2022/11/10 03:53:28;;;;;;;10.95;4.07;;;10.50;99.90;;;;;;6131016;29;20051;-85
2022/11/10 03:56:30;;;;;;;10.52;3.95;;;10.50;99.90;;;;;;6130276;29;20058;-84
2022/11/10 03:59:32;;;;;;;26.83;4.72;;;10.40;99.90;;;;;;6130959;29;20052;-85
2022/11/10 04:02:33;;;;;;;9.50;4.20;;;10.50;99.90;;;;;;6131067;29;20048;-86
2022/11/10 04:08:58;;;;;;;13.18;3.55;;;10.60;99.90;;;;;;6130777;29;20147;-85
2022/11/10 04:18:39;;;;;;;8.88;2.50;;;10.80;99.90;;;;;;6132226;29;20055;-85
2022/11/10 04:21:40;;;;;;;14.90;3.53;;;10.80;99.90;;;;;;6130630;29;20056;-87
2022/11/10 04:24:43;;;;;;;21.73;3.97;;;10.80;99.90;;;;;;6181632;23;20039;-85
2022/11/10 04:27:45;;;;;;;12.43;3.53;;;10.90;99.90;;;;;;6149711;28;20059;-85
2022/11/10 04:30:47;;;;;;;9.23;3.22;;;10.90;99.90;;;;;;6144208;28;20043;-85
2022/11/10 04:33:49;;;;;;;15.20;3.80;;;10.90;99.90;;;;;;6112656;29;20051;-85
2022/11/10 04:36:51;;;;;;;11.70;3.33;;;10.90;99.90;;;;;;6103945;29;20048;-85
2022/11/10 04:39:54;;;;;;;15.63;4.53;;;10.90;99.90;;;;;;6104330;29;20399;-85
2022/11/10 04:42:56;;;;;;;14.23;4.13;;;10.90;99.90;;;;;;6103270;29;20064;-85
2022/11/10 04:45:57;;;;;;;10.23;3.90;;;10.90;99.90;;;;;;6103395;29;20055;-85
2022/11/10 04:48:59;;;;;;;23.23;4.72;;;10.80;99.90;;;;;;6102198;29;20055;-85
2022/11/10 04:52:01;;;;;;;16.17;3.97;;;10.80;99.90;;;;;;6102922;29;20048;-85
2022/11/10 04:55:04;;;;;;;27.35;4.80;;;10.80;99.90;;;;;;6103548;29;20052;-85
2022/11/10 04:58:06;;;;;;;9.60;3.45;;;10.70;99.90;;;;;;6102478;29;20044;-85
2022/11/10 05:01:11;;;;;;;9.95;3.85;;;10.70;99.90;;;;;;6103815;29;20063;-85
2022/11/10 05:04:12;;;;;;;14.30;4.15;;;10.70;99.90;;;;;;6103572;29;20100;-85
2022/11/10 05:07:14;;;;;;;11.02;3.15;;;10.60;99.90;;;;;;6103618;29;20056;-85
2022/11/10 05:10:17;;;;;;;15.38;4.30;;;10.60;99.90;;;;;;6104720;29;20055;-85
2022/11/10 05:13:19;;;;;;;12.75;3.30;;;10.70;99.90;;;;;;6108417;29;20055;-84
2022/11/10 05:16:20;;;;;;;15.40;3.90;;;10.70;99.90;;;;;;6111337;29;20050;-85
2022/11/10 05:19:22;;;;;;;11.15;3.83;;;10.80;99.90;;;;;;6108993;29;20067;-85
2022/11/10 05:22:24;;;;;;;16.15;4.22;;;10.80;99.90;;;;;;6108331;29;20056;-85
2022/11/10 05:25:27;;;;;;;24.15;4.93;;;10.90;99.90;;;;;;6107745;29;20052;-85
2022/11/10 05:28:28;;;;;;;19.20;4.57;;;10.80;99.90;;;;;;6108030;29;20059;-85
2022/11/10 05:31:30;;;;;;;13.20;4.18;;;10.70;99.90;;;;;;6121686;29;20059;-85
2022/11/10 05:34:32;;;;;;;14.85;3.60;;;10.60;99.90;;;;;;6134225;29;20044;-85
2022/11/10 05:37:33;;;;;;;9.73;3.75;;;10.60;99.90;;;;;;6132243;29;20043;-85
2022/11/10 05:40:36;;;;;;;15.75;3.15;;;10.60;99.90;;;;;;6132181;29;20066;-85
2022/11/10 05:43:38;;;;;;;10.82;3.53;;;10.50;99.90;;;;;;6134274;29;20067;-85
2022/11/10 05:46:40;;;;;;;13.98;3.72;;;10.50;99.90;;;;;;6134665;29;20517;-85
2022/11/10 05:49:41;;;;;;;6.88;3.42;;;10.50;99.90;;;;;;6129906;28;20052;-85
2022/11/10 05:52:45;;;;;;;15.98;4.97;;;10.50;99.90;;;;;;6129810;29;20059;-85
2022/11/10 05:55:48;;;;;;;18.83;4.45;;;10.40;99.90;;;;;;6133224;29;20054;-84
2022/11/10 05:58:49;;;;;;;14.80;4.30;;;10.40;99.90;;;;;;6132884;29;20058;-85
2022/11/10 06:01:51;;;;;;;14.40;3.88;;;10.40;99.90;;;;;;6131888;29;20055;-84
2022/11/10 06:04:53;;;;;;;25.02;5.60;;;10.30;99.90;;;;;;6132573;29;20055;-84
2022/11/10 06:07:54;;;;;;;14.70;4.15;;;10.30;99.90;;;;;;6131798;29;20056;-85
2022/11/10 06:10:58;;;;;;;12.85;3.92;;;10.30;99.90;;;;;;6132569;29;20058;-84
2022/11/10 06:13:59;;;;;;;15.82;3.60;;;10.30;99.90;;;;;;6132530;29;20090;-84
2022/11/10 06:17:01;;;;;;;11.10;3.63;;;10.20;99.90;;;;;;6132362;29;20099;-84
2022/11/10 06:20:03;;;;;;;11.43;3.38;;;10.20;99.90;;;;;;6131978;29;20051;-84
2022/11/10 06:23:06;;;;;;;13.73;3.58;;;10.20;99.90;;;;;;6131412;29;20059;-84
2022/11/10 06:26:09;;;;;;;9.13;3.47;;;10.10;99.90;;;;;;6132795;29;20043;-85
2022/11/10 06:29:11;;;;;;;20.83;6.10;;;10.10;99.90;;;;;;6132930;29;20044;-85
2022/11/10 06:32:12;;;;;;;14.68;4.50;;;10.10;99.90;;;;;;6130758;29;20425;-84
2022/11/10 06:35:14;;;;;;;18.50;5.70;;;10.20;99.90;;;;;;6131647;29;20429;-84
2022/11/10 06:38:16;;;;;;;22.73;5.43;;;10.30;99.90;;;;;;6132222;29;20091;-83
2022/11/10 06:41:19;;;;;;;14.77;5.05;;;10.40;99.90;;;;;;6132790;29;20059;-84
2022/11/10 06:44:20;;;;;;;26.52;5.72;;;10.40;99.90;;;;;;6131467;28;20055;-84
2022/11/10 06:47:22;;;;;;;15.20;5.22;;;10.50;99.90;;;;;;6130669;29;20051;-84
2022/11/10 06:50:24;;;;;;;12.52;6.32;;;10.50;99.90;;;;;;6132224;29;20055;-84
2022/11/10 06:53:25;;;;;;;12.38;4.03;;;10.50;99.90;;;;;;6131630;28;20055;-84
2022/11/10 06:56:28;;;;;;;11.50;4.65;;;10.60;99.90;;;;;;6134054;29;20062;-84
2022/11/10 06:59:30;;;;;;;27.45;4.95;;;10.60;99.90;;;;;;6131088;28;20058;-83
2022/11/10 07:02:32;;;;;;;14.60;4.93;;;10.60;99.90;;;;;;6132525;29;20052;-84
2022/11/10 07:05:34;;;;;;;19.40;5.05;;;10.60;99.90;;;;;;6133256;29;20047;-84
2022/11/10 07:08:36;;;;;;;13.63;4.15;;;10.60;99.90;;;;;;6132693;29;20059;-84
2022/11/10 07:11:39;;;;;;;11.38;4.45;;;10.50;99.90;;;;;;6132632;29;20059;-84
2022/11/10 07:14:40;;;;;;;13.90;4.10;;;10.50;99.90;;;;;;6132901;29;20051;-84
2022/11/10 07:17:42;;;;;;;13.65;4.65;;;10.50;99.90;;;;;;6131950;29;20517;-83
2022/11/10 07:20:45;;;;;;;19.13;4.65;;;10.50;99.90;;;;;;6131247;29;20058;-84
2022/11/10 07:23:46;;;;;;;17.33;4.50;;;10.50;99.90;;;;;;6083232;29;20119;-84
2022/11/10 07:26:49;;;;;;;17.58;5.38;;;10.60;99.90;;;;;;6129932;29;20048;-84
2022/11/10 07:29:51;;;;;;;21.17;5.22;;;10.70;99.90;;;;;;6162487;28;20062;-84
2022/11/10 07:33:00;;;;;;;11.93;3.72;;;10.70;99.90;;;;;;6155933;28;20051;-84
2022/11/10 07:36:04;;;;;;;11.25;3.72;;;10.80;99.90;;;;;;6134703;28;20047;-84
2022/11/10 07:39:05;;;;;;;13.95;5.47;;;10.80;99.90;;;;;;6145151;29;20054;-84
2022/11/10 07:42:08;;;;;;;10.82;4.28;;;10.80;99.90;;;;;;6137278;28;20043;-83
2022/11/10 07:45:11;;;;;;;16.75;4.97;;;11.00;99.90;;;;;;6148597;29;20062;-84
2022/11/10 07:48:13;;;;;;;9.07;4.03;;;11.10;99.90;;;;;;6159166;28;20672;-85
2022/11/10 07:51:14;;;;;;;27.63;5.55;;;11.20;99.90;;;;;;6154076;28;20501;-84
2022/11/10 07:54:16;;;;;;;16.70;5.45;;;11.20;99.90;;;;;;6157216;28;20068;-84
2022/11/10 07:57:19;;;;;;;11.48;4.53;;;11.40;99.90;;;;;;6159754;28;20059;-84
2022/11/10 08:00:21;;;;;;;20.42;5.38;;;11.60;99.90;;;;;;6158149;28;20138;-84
2022/11/10 08:03:22;;;;;;;21.05;5.57;;;11.70;99.90;;;;;;6160095;28;20051;-84
2022/11/10 08:06:24;;;;;;;35.67;5.72;;;11.70;99.90;;;;;;6167523;28;20151;-84
2022/11/10 08:09:26;;;;;;;18.77;5.10;;;11.70;99.90;;;;;;6163410;28;20055;-84
2022/11/10 08:12:29;;;;;;;18.05;5.25;;;11.90;99.90;;;;;;6158959;28;20408;-84
2022/11/10 08:15:32;;;;;;;17.77;6.45;;;12.10;99.90;;;;;;6160521;28;20048;-85
2022/11/10 08:18:33;;;;;;;17.27;6.43;;;12.20;99.90;;;;;;6159630;29;20051;-83
2022/11/10 08:21:35;;;;;;;10.32;5.90;;;12.30;99.90;;;;;;6159343;28;20135;-85
2022/11/10 08:24:37;;;;;;;19.92;8.07;;;12.40;99.90;;;;;;6157952;28;20111;-85
2022/11/10 08:27:40;;;;;;;22.98;6.38;;;12.50;99.90;;;;;;6158389;28;20055;-84
2022/11/10 08:30:43;;;;;;;30.70;7.70;;;12.60;99.90;;;;;;6158191;29;20062;-84
2022/11/10 08:33:45;;;;;;;22.73;6.43;;;12.70;99.90;;;;;;6148781;28;20425;-85
2022/11/10 08:36:47;;;;;;;27.25;7.75;;;13.00;99.90;;;;;;6138433;28;20063;-85
2022/11/10 08:39:48;;;;;;;24.58;7.55;;;13.50;99.90;;;;;;6154788;28;20044;-84
2022/11/10 08:42:59;;;;;;;24.73;7.82;;;14.00;99.90;;;;;;6158060;28;20051;-85
2022/11/10 08:46:01;;;;;;;25.27;9.02;;;14.40;99.90;;;;;;6155353;28;20048;-85
2022/11/10 08:49:03;;;;;;;28.13;8.57;;;14.80;99.90;;;;;;6156175;28;20477;-84
2022/11/10 08:52:04;;;;;;;30.60;7.95;;;15.00;99.90;;;;;;6156860;28;20067;-84
2022/11/10 08:55:06;;;;;;;20.90;7.75;;;15.30;99.90;;;;;;6156129;29;20047;-84
2022/11/10 08:58:12;;;;;;;14.73;6.50;;;15.60;99.90;;;;;;6159516;28;20193;-85
2022/11/10 09:01:14;;;;;;;18.60;7.35;;;15.90;99.90;;;;;;6155776;28;20051;-84
2022/11/10 09:04:15;;;;;;;22.25;7.15;;;16.10;99.90;;;;;;6155689;28;20053;-83
2022/11/10 09:07:17;;;;;;;19.15;6.72;;;16.30;99.90;;;;;;6143341;28;20051;-84
2022/11/10 09:10:19;;;;;;;17.33;6.95;;;16.60;99.90;;;;;;6154640;29;20057;-84
2022/11/10 09:13:22;;;;;;;11.18;5.70;;;16.70;99.90;;;;;;6155497;28;20055;-84
2022/11/10 09:16:24;;;;;;;14.48;4.18;;;16.80;99.90;;;;;;6156261;28;20055;-84
2022/11/10 09:19:25;;;;;;;11.50;4.60;;;17.10;99.90;;;;;;6155266;28;20051;-84
2022/11/10 09:22:28;;;;;;;18.48;5.97;;;17.20;99.90;;;;;;6156131;28;20055;-84
2022/11/10 09:25:29;;;;;;;9.20;2.65;;;17.40;99.90;;;;;;6153739;28;20047;-84
2022/11/10 09:28:32;;;;;;;10.68;2.30;;;17.60;99.90;;;;;;6153904;28;20051;-84
2022/11/10 09:31:34;;;;;;;10.23;2.72;;;17.60;99.90;;;;;;6153772;28;20082;-85
2022/11/10 09:34:36;;;;;;;7.82;2.20;;;17.50;99.90;;;;;;6146613;28;20436;-83
2022/11/10 09:37:39;;;;;;;11.60;2.70;;;17.40;99.90;;;;;;6143944;28;20043;-84
2022/11/10 09:40:57;;;;;;;8.32;2.28;;;17.30;99.90;;;;;;6153503;28;20051;-84
2022/11/10 09:44:05;;;;;;;4.07;1.70;;;17.50;99.90;;;;;;6137670;28;20052;-84
2022/11/10 09:47:11;;;;;;;;;;;17.60;99.90;;;;;;6130473;29;20054;-83
2022/11/10 09:50:18;;;;;;;2.58;1.35;;;17.80;99.90;;;;;;6153754;28;19966;-84
2022/11/10 09:53:24;;;;;;;6.28;1.67;;;18.00;99.90;;;;;;6152924;28;20047;-84
2022/11/10 09:56:31;;;;;;;5.22;1.63;;;18.00;99.90;;;;;;6153179;28;20057;-84
2022/11/10 09:59:36;;;;;;;12.13;2.77;;;18.10;99.90;;;;;;6158122;28;20066;-84
2022/11/10 10:02:41;;;;;;;4.65;1.83;;;18.10;99.90;;;;;;6159344;28;20355;-84
2022/11/10 10:06:01;;;;;;;7.18;1.55;;;18.30;99.90;;;;;;6166459;28;20050;-84
2022/11/10 10:09:11;;;;;;;4.60;1.35;;;18.30;99.90;;;;;;6164285;28;20043;-84
2022/11/10 10:12:24;;;;;;;5.78;1.10;;;18.50;99.90;;;;;;6158633;28;20078;-84
2022/11/10 10:15:38;;;;;;;6.05;1.17;;;18.60;99.90;;;;;;6158736;28;20051;-83
2022/11/10 10:18:49;;;;;;;8.90;1.52;;;18.50;99.90;;;;;;6158956;29;20426;-83
2022/11/10 10:22:13;;;;;;;7.00;0.95;;;18.80;99.90;;;;;;6158042;28;20054;-84
2022/11/10 10:25:20;;;;;;;2.80;0.88;;;19.20;99.90;;;;;;6158049;28;20421;-84
2022/11/10 10:28:27;;;;;;;4.95;1.73;;;19.60;99.90;;;;;;6157047;28;20054;-84
2022/11/10 10:31:35;;;;;;;6.00;0.93;;;19.80;99.90;;;;;;6158211;28;20058;-84
2022/11/10 10:34:37;;;;;;;5.43;1.13;;;20.30;99.90;;;;;;6157765;28;20425;-85
2022/11/10 10:37:43;;;;;;;2.30;0.70;;;20.80;99.90;;;;;;6154138;28;20051;-84
2022/11/10 10:40:48;;;;;;;15.05;1.25;;;21.10;99.90;;;;;;6159495;28;20062;-84
2022/11/10 10:43:52;;;;;;;4.80;0.80;;;21.50;99.90;;;;;;6160073;28;20054;-84
2022/11/10 10:46:59;;;;;;;8.02;1.40;;;21.60;99.90;;;;;;6159965;29;20055;-84
2022/11/10 10:50:26;;;;;;;5.20;1.58;;;21.80;99.90;;;;;;6158785;28;20047;-84
2022/11/10 10:53:28;;;;;;;4.80;0.98;;;22.00;99.90;;;;;;6157288;28;20046;-84
2022/11/10 10:56:32;;;;;;;2.83;0.80;;;21.90;99.90;;;;;;6157593;28;20062;-84
2022/11/10 10:59:34;;;;;;;5.18;1.08;;;21.90;99.90;;;;;;6158613;28;20051;-84
2022/11/10 11:02:37;;;;;;;3.17;1.02;;;22.00;99.90;;;;;;6158356;28;20063;-84
2022/11/10 11:05:39;;;;;;;1.27;0.52;;;22.10;99.90;;;;;;6153877;28;20055;-84
2022/11/10 11:08:53;;;;;;;7.05;0.60;;;22.10;99.90;;;;;;6150928;28;20054;-85
2022/11/10 11:12:06;;;;;;;6.57;1.40;;;21.90;99.90;;;;;;6160518;28;20521;-84
2022/11/10 11:15:19;;;;;;;1.75;0.57;;;21.80;99.90;;;;;;6158785;29;20079;-84
2022/11/10 11:18:23;;;;;;;4.38;0.65;;;21.90;99.90;;;;;;6158040;28;20047;-84
2022/11/10 11:21:32;;;;;;;5.85;0.70;;;22.00;99.70;;;;;;6158125;28;20047;-84
2022/11/10 11:24:42;;;;;;;4.00;0.50;;;22.00;98.40;;;;;;6158296;28;20312;-84
2022/11/10 11:27:55;;;;;;;1.27;0.60;;;22.00;98.80;;;;;;6157370;28;20054;-84
2022/11/10 11:31:10;;;;;;;3.20;0.60;;;22.10;97.80;;;;;;6159293;29;20505;-84
2022/11/10 11:34:21;;;;;;;3.95;0.80;;;22.20;97.90;;;;;;6158443;28;20054;-84
2022/11/10 11:37:34;;;;;;;1.52;0.63;;;22.30;97.60;;;;;;6153381;28;20039;-84
2022/11/10 11:40:46;;;;;;;1.90;0.65;;;22.40;97.40;;;;;;6157758;28;20043;-84
2022/11/10 11:44:15;;;;;;;1.30;0.47;;;22.60;97.40;;;;;;6158209;28;20053;-84
2022/11/10 11:47:32;;;;;;;4.20;0.43;;;22.80;97.40;;;;;;6152964;28;20055;-84
2022/11/10 11:50:42;;;;;;;3.17;0.43;;;22.90;96.70;;;;;;6143612;29;20066;-84
2022/11/10 11:54:15;;;;;;;3.55;1.50;;;23.20;96.70;;;;;;6133324;29;20058;-84
2022/11/10 11:57:30;;;;;;;3.25;0.63;;;23.30;95.30;;;;;;6131932;29;20048;-84
2022/11/10 12:00:42;;;;;;;3.28;0.60;;;23.40;95.00;;;;;;6131899;29;20050;-84
2022/11/10 12:04:08;;;;;;;5.38;0.90;;;23.60;95.10;;;;;;6131384;29;20528;-84
2022/11/10 12:07:27;;;;;;;4.25;0.70;;;23.70;94.50;;;;;;6143617;29;20050;-85
2022/11/10 12:10:39;;;;;;;3.83;1.65;;;23.90;94.30;;;;;;6156080;29;20055;-84
2022/11/10 12:13:55;;;;;;;6.15;0.93;;;24.10;93.50;;;;;;6156124;28;20063;-84
2022/11/10 12:17:05;;;;;;;4.75;0.60;;;24.20;93.20;;;;;;6158261;28;20050;-84
2022/11/10 12:20:20;;;;;;;4.15;0.95;;;24.40;93.00;;;;;;6155315;28;20059;-84
2022/11/10 12:23:34;;;;;;;3.35;0.50;;;24.50;92.40;;;;;;6157262;28;20047;-85
2022/11/10 12:26:46;;;;;;;2.72;0.60;;;24.40;91.80;;;;;;6157247;29;20051;-84
2022/11/10 12:29:53;;;;;;;3.25;0.50;;;24.20;91.50;;;;;;6156003;28;20066;-84
2022/11/10 12:33:02;;;;;;;4.83;0.53;;;24.20;91.60;;;;;;6137794;28;20055;-83
2022/11/10 12:36:07;;;;;;;4.28;0.50;;;24.40;91.60;;;;;;6138044;28;20054;-84
2022/11/10 12:39:18;;;;;;;3.92;0.50;;;24.50;91.20;;;;;;6148166;29;20051;-84
2022/11/10 12:42:22;;;;;;;2.80;0.68;;;24.60;91.00;;;;;;6155053;28;20059;-84
2022/11/10 12:45:27;;;;;;;2.88;0.93;;;24.70;90.10;;;;;;6148148;28;20066;-84
2022/11/10 12:48:39;;;;;;;3.58;0.43;;;24.60;90.50;;;;;;6152340;28;20055;-84
2022/11/10 12:51:50;;;;;;;5.47;0.40;;;24.60;90.50;;;;;;6153083;28;20051;-84
2022/11/10 12:54:53;;;;;;;1.73;0.50;;;24.70;90.30;;;;;;6154090;28;20055;-84
2022/11/10 12:57:55;;;;;;;2.65;0.50;;;24.70;90.20;;;;;;6153335;28;20402;-85
2022/11/10 13:00:59;;;;;;;6.90;0.50;;;24.70;90.30;;;;;;6154376;28;20047;-84
2022/11/10 13:04:01;;;;;;;3.92;0.68;;;24.80;90.20;;;;;;6154100;28;20047;-84
2022/11/10 13:07:05;;;;;;;1.15;0.38;;;24.90;89.00;;;;;;6141642;29;20059;-84
2022/11/10 13:10:22;;;;;;;2.05;0.50;;;24.80;88.60;;;;;;6154190;28;20047;-84
2022/11/10 13:13:24;;;;;;;2.08;0.22;;;24.70;89.50;;;;;;6153063;28;20043;-85
2022/11/10 13:16:52;;;;;;;2.47;0.77;;;24.80;90.00;;;;;;6152798;28;20047;-84
2022/11/10 13:19:55;;;;;;;16.90;4.10;;;24.70;90.50;;;;;;6153732;28;20107;-84
2022/11/10 13:22:57;;;;;;;4.50;1.45;;;24.70;90.10;;;;;;6154287;28;20051;-84
2022/11/10 13:26:04;;;;;;;4.20;0.82;;;24.70;89.90;;;;;;6152841;28;20062;-84
2022/11/10 13:29:20;;;;;;;1.65;0.30;;;24.70;89.20;;;;;;6154344;28;20058;-84
2022/11/10 13:32:27;;;;;;;1.55;0.40;;;24.60;89.90;;;;;;6155133;28;20050;-84
2022/11/10 13:35:51;;;;;;;5.05;1.05;;;24.70;88.90;;;;;;6146163;28;20047;-84
2022/11/10 13:38:54;;;;;;;6.93;0.82;;;24.70;90.30;;;;;;6144766;29;20047;-85
2022/11/10 13:42:02;;;;;;;2.22;0.38;;;24.80;89.70;;;;;;6145345;28;20059;-85
2022/11/10 13:45:29;;;;;;;3.50;0.50;;;24.80;89.20;;;;;;6134817;29;20534;-84
2022/11/10 13:48:42;;;;;;;3.08;0.60;;;24.80;90.20;;;;;;6134955;29;20056;-85
2022/11/10 13:51:49;;;;;;;13.30;2.50;;;24.70;89.10;;;;;;6133762;29;20054;-85
2022/11/10 13:55:08;;;;;;;6.10;0.65;;;24.70;89.10;;;;;;6133438;29;20056;-84
2022/11/10 13:58:18;;;;;;;2.80;0.47;;;24.70;88.60;;;;;;6130917;29;20055;-84
2022/11/10 14:01:27;;;;;;;4.32;0.68;;;24.50;87.60;;;;;;6132531;29;20052;-84
2022/11/10 14:04:42;;;;;;;1.90;0.63;;;24.40;87.20;;;;;;6131409;29;20410;-84
2022/11/10 14:07:45;;;;;;;3.38;0.57;;;24.30;87.60;;;;;;6148544;28;20066;-84
2022/11/10 14:10:51;;;;;;;3.72;0.80;;;24.30;87.50;;;;;;6159462;29;20163;-85
2022/11/10 14:13:57;;;;;;;4.05;0.60;;;24.30;87.10;;;;;;6158984;28;20047;-85
2022/11/10 14:16:59;;;;;;;6.22;0.40;;;24.30;86.60;;;;;;6156877;28;20043;-85
2022/11/10 14:20:02;;;;;;;2.20;0.73;;;24.20;86.90;;;;;;6156338;28;20070;-84
2022/11/10 14:23:05;;;;;;;7.45;1.30;;;24.20;85.80;;;;;;6157863;28;20608;-84
2022/11/10 14:26:16;;;;;;;5.57;1.60;;;24.20;86.70;;;;;;6158400;28;20560;-84
2022/11/10 14:29:26;;;;;;;4.65;1.77;;;24.20;85.50;;;;;;6157535;28;20070;-84
2022/11/10 14:32:28;;;;;;;5.28;2.40;;;24.20;85.20;;;;;;6157536;28;20058;-84
2022/11/10 14:35:32;;;;;;;9.32;2.03;;;24.10;85.80;;;;;;6155432;28;20047;-84
2022/11/10 14:38:36;;;;;;;3.75;1.33;;;24.10;85.20;;;;;;6146060;29;20058;-84
2022/11/10 14:41:46;;;;;;;5.88;1.98;;;24.10;84.60;;;;;;6157521;28;20138;-84
2022/11/10 14:44:49;;;;;;;2.08;1.10;;;24.10;83.50;;;;;;6155952;28;20051;-84
2022/11/10 14:47:52;;;;;;;1.45;0.45;;;24.00;82.20;;;;;;6156770;28;20054;-84
2022/11/10 14:50:55;;;;;;;3.10;0.90;;;23.90;81.30;;;;;;6156973;29;20062;-84
2022/11/10 14:53:57;;;;;;;4.90;0.63;;;23.80;79.90;;;;;;6157341;28;20056;-84
2022/11/10 14:56:59;;;;;;;8.20;4.72;;;23.80;78.80;;;;;;6155928;28;20051;-84
2022/11/10 15:00:06;;;;;;;2.65;0.60;;;23.70;77.70;;;;;;6156882;28;20510;-84
2022/11/10 15:03:13;;;;;;;9.63;1.35;;;23.60;76.60;;;;;;6156010;28;20051;-85
2022/11/10 15:06:16;;;;;;;8.67;3.53;;;23.40;76.50;;;;;;6171322;28;20051;-84
2022/11/10 15:09:23;;;;;;;7.07;3.15;;;23.20;76.30;;;;;;6176507;28;20054;-84
2022/11/10 15:12:27;;;;;;;9.70;4.60;;;22.90;75.60;;;;;;6180471;28;20054;-83
2022/11/10 15:15:30;;;;;;;4.53;1.35;;;22.60;75.70;;;;;;6179713;28;20069;-84
2022/11/10 15:18:32;;;;;;;10.27;1.73;;;22.20;75.80;;;;;;6179025;28;20079;-84
2022/11/10 15:21:34;;;;;;;4.32;0.80;;;21.90;76.00;;;;;;6180135;28;20054;-84
2022/11/10 15:24:36;;;;;;;5.60;0.80;;;21.50;76.20;;;;;;6179204;28;20427;-84
2022/11/10 15:27:38;;;;;;;2.45;0.90;;;21.00;76.80;;;;;;6180555;28;20042;-83
2022/11/10 15:30:50;;;;;;;5.50;1.02;;;20.50;77.30;;;;;;6181205;28;20051;-84
2022/11/10 15:33:55;;;;;;;2.75;0.85;;;19.90;78.30;;;;;;6179101;28;20106;-84
2022/11/10 15:37:10;;;;;;;1.73;0.60;;;19.30;80.00;;;;;;6166310;28;20062;-85
2022/11/10 15:40:35;;;;;;;4.20;0.47;;;18.70;80.70;;;;;;6178817;28;20051;-84
2022/11/10 15:43:37;;;;;;;6.30;1.00;;;18.20;82.00;;;;;;6164499;28;20626;-83
2022/11/10 15:46:40;;;;;;;5.25;0.90;;;17.70;82.70;;;;;;6153973;29;20103;-84
2022/11/10 15:49:43;;;;;;;4.10;1.10;;;17.30;83.80;;;;;;6154586;28;20058;-84
2022/11/10 15:52:44;;;;;;;4.72;1.00;;;16.80;84.60;;;;;;6155014;28;20055;-83
2022/11/10 15:55:46;;;;;;;8.63;3.22;;;16.30;85.80;;;;;;6153989;28;20054;-83
2022/11/10 15:58:49;;;;;;;3.60;1.58;;;15.80;87.10;;;;;;6154799;28;20062;-83
2022/11/10 16:01:52;;;;;;;6.63;1.40;;;15.40;88.20;;;;;;6154569;28;20058;-83
2022/11/10 16:04:54;;;;;;;4.40;1.02;;;15.10;89.40;;;;;;6154201;28;20051;-82
2022/11/10 16:07:58;;;;;;;4.85;1.13;;;14.70;90.00;;;;;;6170387;28;20058;-83